Time;durP1;ratioP1;P1;durP2;ratioP2;P2;SDS_P1;SDS_P2;PMS_P1;PMS_P2;Temp;Humidity;BMP_temperature;BMP_pressure;BME280_temperature;BME280_humidity;BME280_pressure;Samples;Min_cycle;Max_cycle;Signal;HPM_P1;HPM_P2
2023/03/04 00:01:34;;;;;;;39.20;24.30;;;;;;;2.29;100.00;97185.66;5062004;28;20197;-82
2023/03/04 00:03:59;;;;;;;38.90;23.47;;;;;;;2.22;100.00;97182.13;5058108;28;20194;-83
2023/03/04 00:06:24;;;;;;;38.50;22.97;;;;;;;2.16;100.00;97180.19;5060585;28;20221;-84
2023/03/04 00:08:50;;;;;;;40.80;23.77;;;;;;;2.16;100.00;97195.72;5060481;28;20194;-83
2023/03/04 00:11:15;;;;;;;38.70;24.13;;;;;;;2.22;100.00;97192.47;5058465;28;20190;-84
2023/03/04 00:13:40;;;;;;;37.50;23.53;;;;;;;2.16;100.00;97181.97;5058579;28;20546;-82
2023/03/04 00:16:06;;;;;;;41.00;24.27;;;;;;;2.16;100.00;97187.16;5059616;28;20255;-83
2023/03/04 00:18:31;;;;;;;37.43;24.93;;;;;;;2.22;100.00;97182.13;5058563;28;20185;-83
2023/03/04 00:20:56;;;;;;;41.23;24.73;;;;;;;2.20;100.00;97185.84;5058282;28;20192;-83
2023/03/04 00:23:22;;;;;;;37.50;23.87;;;;;;;2.18;100.00;97188.56;5043350;28;20183;-83
2023/03/04 00:25:47;;;;;;;41.60;23.63;;;;;;;1.99;100.00;97188.94;5054246;28;20189;-83
2023/03/04 00:28:12;;;;;;;36.20;23.10;;;;;;;1.98;100.00;97189.91;5066103;28;20190;-83
2023/03/04 00:30:38;;;;;;;40.07;24.60;;;;;;;2.06;100.00;97190.69;5066186;28;20278;-83
2023/03/04 00:33:03;;;;;;;37.33;23.87;;;;;;;2.05;100.00;97196.84;5065276;28;20190;-84
2023/03/04 00:35:28;;;;;;;37.93;22.97;;;;;;;2.04;100.00;97191.84;5065326;28;20259;-84
2023/03/04 00:37:54;;;;;;;42.93;23.10;;;;;;;2.03;100.00;97188.44;5063572;28;20212;-84
2023/03/04 00:40:19;;;;;;;41.40;23.83;;;;;;;1.99;100.00;97183.78;5064271;28;20202;-84
2023/03/04 00:42:44;;;;;;;36.57;22.90;;;;;;;1.95;100.00;97192.81;5062875;28;20201;-83
2023/03/04 00:45:10;;;;;;;39.83;23.87;;;;;;;1.95;100.00;97185.06;5065469;28;20200;-83
2023/03/04 00:47:35;;;;;;;34.70;22.43;;;;;;;1.98;100.00;97185.53;5066871;28;20225;-83
2023/03/04 00:50:00;;;;;;;39.30;24.13;;;;;;;1.94;100.00;97189.44;5068453;28;20201;-84
2023/03/04 00:52:26;;;;;;;40.20;23.93;;;;;;;1.89;100.00;97193.47;5073812;28;20189;-84
2023/03/04 00:54:51;;;;;;;37.53;23.97;;;;;;;1.78;100.00;97186.03;5055619;28;20257;-84
2023/03/04 00:57:16;;;;;;;38.27;23.83;;;;;;;1.71;100.00;97193.63;5071666;28;20261;-84
2023/03/04 00:59:42;;;;;;;35.60;22.63;;;;;;;1.68;100.00;97183.59;5065036;28;20225;-84
2023/03/04 01:02:09;;;;;;;36.13;22.50;;;;;;;1.60;100.00;97181.84;5066628;28;20300;-84
2023/03/04 01:04:34;;;;;;;41.77;23.33;;;;;;;1.61;100.00;97183.47;5067559;28;20249;-84
2023/03/04 01:06:59;;;;;;;38.20;23.43;;;;;;;1.62;100.00;97182.47;5070944;28;20225;-84
2023/03/04 01:09:25;;;;;;;39.23;24.00;;;;;;;1.60;100.00;97183.63;5068497;28;20190;-84
2023/03/04 01:11:51;;;;;;;43.37;24.90;;;;;;;1.56;100.00;97177.16;5067249;28;20324;-84
2023/03/04 01:14:17;;;;;;;40.30;25.30;;;;;;;1.47;100.00;97185.84;5067484;28;20705;-85
2023/03/04 01:16:42;;;;;;;39.50;25.03;;;;;;;1.49;100.00;97177.00;5068047;28;20189;-85
2023/03/04 01:19:08;;;;;;;43.60;26.57;;;;;;;1.43;100.00;97182.78;5065865;28;20194;-85
2023/03/04 01:21:33;;;;;;;42.53;27.53;;;;;;;1.30;100.00;97172.09;5063836;28;20190;-82
2023/03/04 01:23:58;;;;;;;39.53;26.93;;;;;;;1.23;100.00;97176.28;5064698;28;20210;-85
2023/03/04 01:26:24;;;;;;;42.37;24.50;;;;;;;1.25;100.00;97179.53;5067275;28;20209;-84
2023/03/04 01:28:49;;;;;;;39.67;26.30;;;;;;;1.18;100.00;97171.59;5064605;28;20190;-82
2023/03/04 01:31:14;;;;;;;41.40;25.53;;;;;;;1.14;100.00;97175.47;5066235;28;20194;-84
2023/03/04 01:33:40;;;;;;;38.77;23.70;;;;;;;1.10;100.00;97170.78;5066587;28;20228;-84
2023/03/04 01:36:05;;;;;;;47.03;26.33;;;;;;;1.04;100.00;97174.00;5067311;28;20222;-84
2023/03/04 01:38:30;;;;;;;41.03;25.77;;;;;;;1.10;100.00;97168.19;5067617;28;20205;-84
2023/03/04 01:40:56;;;;;;;42.10;24.77;;;;;;;1.11;100.00;97169.81;5063417;28;20196;-83
2023/03/04 01:43:26;;;;;;;41.13;23.80;;;;;;;1.13;100.00;97160.94;5062745;28;20189;-84
2023/03/04 01:45:53;;;;;;;38.33;23.30;;;;;;;1.24;100.00;97162.41;5058802;28;20220;-85
2023/03/04 01:48:25;;;;;;;42.17;25.47;;;;;;;1.19;100.00;97173.22;5056901;28;20186;-84
2023/03/04 01:50:51;;;;;;;40.00;23.37;;;;;;;1.12;100.00;97167.06;5067954;28;20285;-84
2023/03/04 01:53:21;;;;;;;37.30;23.20;;;;;;;1.01;100.00;97161.38;5071014;28;20190;-84
2023/03/04 01:55:47;;;;;;;41.57;24.50;;;;;;;1.10;100.00;97163.84;5066794;28;20202;-84
2023/03/04 01:58:13;;;;;;;40.17;24.13;;;;;;;0.99;100.00;97164.16;5062926;28;20639;-85
2023/03/04 02:00:38;;;;;;;42.30;23.63;;;;;;;0.93;100.00;97156.22;5061516;28;20206;-85
2023/03/04 02:03:07;;;;;;;40.87;24.30;;;;;;;0.98;100.00;97159.94;5063099;28;20904;-85
2023/03/04 02:05:36;;;;;;;42.83;24.20;;;;;;;0.90;100.00;97156.53;5057307;28;20282;-85
2023/03/04 02:08:03;;;;;;;44.37;25.33;;;;;;;0.91;100.00;97163.31;5058404;28;20264;-85
2023/03/04 02:10:29;;;;;;;37.30;23.60;;;;;;;0.97;100.00;97154.94;5055972;28;20220;-84
2023/03/04 02:12:55;;;;;;;42.63;24.17;;;;;;;1.06;100.00;97152.22;5055508;28;20608;-85
2023/03/04 02:15:22;;;;;;;41.23;23.83;;;;;;;1.00;100.00;97158.03;5054923;28;20194;-84
2023/03/04 02:17:47;;;;;;;40.67;23.97;;;;;;;0.82;100.00;97155.56;5055569;28;20201;-85
2023/03/04 02:20:15;;;;;;;45.53;25.17;;;;;;;0.82;100.00;97152.16;5054769;28;20198;-84
2023/03/04 02:22:52;;;;;;;43.37;24.07;;;;;;;0.64;100.00;97157.41;5054391;28;20647;-85
2023/03/04 02:25:25;;;;;;;44.17;26.20;;;;;;;0.71;100.00;97149.88;5055372;28;20190;-85
2023/03/04 02:27:50;;;;;;;38.77;24.23;;;;;;;0.70;100.00;97150.81;5055334;28;20206;-85
2023/03/04 02:30:20;;;;;;;42.87;25.43;;;;;;;0.74;100.00;97152.94;5052936;28;20200;-85
2023/03/04 02:32:45;;;;;;;43.87;25.83;;;;;;;0.61;100.00;97156.94;5054701;28;20194;-84
2023/03/04 02:35:18;;;;;;;45.50;25.47;;;;;;;0.61;100.00;97150.00;5054636;28;20225;-85
2023/03/04 02:37:43;;;;;;;40.73;24.70;;;;;;;0.57;100.00;97150.44;5054775;28;20205;-84
2023/03/04 02:40:31;;;;;;;43.27;26.67;;;;;;;0.53;100.00;97146.56;5053930;28;20194;-83
2023/03/04 02:43:00;;;;;;;39.67;23.50;;;;;;;0.51;100.00;97153.63;5054628;28;20285;-84
2023/03/04 02:45:33;;;;;;;40.00;23.87;;;;;;;0.45;100.00;97154.28;5054784;28;20209;-84
2023/03/04 02:47:58;;;;;;;40.63;25.87;;;;;;;0.40;100.00;97150.38;5036621;28;20198;-84
2023/03/04 02:50:25;;;;;;;40.47;24.77;;;;;;;0.52;100.00;97155.25;5054328;28;20190;-84
2023/03/04 02:52:50;;;;;;;39.23;24.73;;;;;;;0.37;100.00;97148.13;5054258;28;20214;-84
2023/03/04 02:55:16;;;;;;;43.37;25.50;;;;;;;0.36;100.00;97156.00;5054840;28;20225;-84
2023/03/04 02:57:41;;;;;;;42.97;24.97;;;;;;;0.36;100.00;97149.06;5054313;28;20289;-84
2023/03/04 03:00:07;;;;;;;40.23;25.30;;;;;;;0.41;100.00;97153.75;5054235;28;20226;-84
2023/03/04 03:02:32;;;;;;;39.13;24.63;;;;;;;0.38;100.00;97154.91;5054115;28;20205;-84
2023/03/04 03:04:58;;;;;;;41.10;24.77;;;;;;;0.25;100.00;97153.69;5053963;28;20194;-84
2023/03/04 03:07:23;;;;;;;43.57;26.20;;;;;;;0.19;100.00;97155.09;5053179;28;20256;-84
2023/03/04 03:09:49;;;;;;;38.13;23.30;;;;;;;0.22;100.00;97148.84;5056263;28;20190;-85
2023/03/04 03:12:15;;;;;;;40.60;23.67;;;;;;;0.36;100.00;97150.84;5064602;28;20186;-85
2023/03/04 03:14:40;;;;;;;36.63;22.83;;;;;;;0.15;100.00;97151.22;5064890;28;20212;-84
2023/03/04 03:17:05;;;;;;;42.30;24.97;;;;;;;0.12;100.00;97155.84;5057444;28;20271;-83
2023/03/04 03:19:30;;;;;;;39.17;24.33;;;;;;;0.14;100.00;97153.94;5057569;28;20194;-83
2023/03/04 03:21:56;;;;;;;38.60;24.83;;;;;;;-0.01;100.00;97153.69;5062099;28;20705;-84
2023/03/04 03:24:21;;;;;;;41.37;25.47;;;;;;;0.01;100.00;97146.63;5064748;28;20258;-84
2023/03/04 03:26:46;;;;;;;43.20;25.60;;;;;;;-0.05;100.00;97153.19;5055207;28;20206;-85
2023/03/04 03:29:12;;;;;;;41.67;24.33;;;;;;;0.05;100.00;97150.53;5053082;28;20603;-85
2023/03/04 03:31:37;;;;;;;41.27;24.93;;;;;;;-0.02;100.00;97149.50;5053979;28;20560;-85
2023/03/04 03:34:02;;;;;;;40.70;25.37;;;;;;;-0.11;100.00;97148.63;5054138;28;20536;-85
2023/03/04 03:36:28;;;;;;;39.97;24.57;;;;;;;-0.14;100.00;97146.38;5054537;28;20221;-83
2023/03/04 03:38:53;;;;;;;36.70;23.47;;;;;;;-0.18;100.00;97154.56;5054112;28;20198;-84
2023/03/04 03:41:19;;;;;;;39.40;24.57;;;;;;;-0.23;100.00;97154.19;5055792;28;20594;-84
2023/03/04 03:43:44;;;;;;;37.13;23.17;;;;;;;-0.24;100.00;97150.00;5053928;28;20285;-84
2023/03/04 03:46:09;;;;;;;41.73;24.73;;;;;;;-0.20;100.00;97151.31;5053764;28;20214;-84
2023/03/04 03:48:34;;;;;;;41.10;24.53;;;;;;;-0.12;100.00;97149.59;5054354;28;20834;-84
2023/03/04 03:51:00;;;;;;;39.40;23.17;;;;;;;-0.10;100.00;97139.94;5059380;28;20292;-84
2023/03/04 03:53:25;;;;;;;39.83;24.87;;;;;;;-0.21;100.00;97142.75;5059279;28;20265;-83
2023/03/04 03:55:51;;;;;;;40.73;24.17;;;;;;;-0.22;100.00;97146.28;5055534;28;20263;-85
2023/03/04 03:58:16;;;;;;;39.00;24.83;;;;;;;-0.13;100.00;97140.25;5053648;28;20193;-85
2023/03/04 04:00:41;;;;;;;38.87;23.83;;;;;;;-0.06;100.00;97146.41;5055034;28;20669;-84
2023/03/04 04:03:10;;;;;;;38.73;23.87;;;;;;;-0.17;100.00;97143.28;5054613;28;20650;-84
2023/03/04 04:05:35;;;;;;;39.47;25.03;;;;;;;-0.22;100.00;97145.47;5058600;28;20549;-84
2023/03/04 04:08:01;;;;;;;40.43;23.57;;;;;;;-0.21;100.00;97137.63;5057542;28;20293;-84
2023/03/04 04:10:26;;;;;;;39.93;24.73;;;;;;;-0.16;100.00;97139.72;5057472;28;20204;-84
2023/03/04 04:12:51;;;;;;;40.13;24.20;;;;;;;-0.21;100.00;97137.63;5058999;28;20213;-85
2023/03/04 04:15:17;;;;;;;39.43;25.30;;;;;;;-0.18;100.00;97146.81;5058870;28;20216;-85
2023/03/04 04:17:42;;;;;;;40.03;24.77;;;;;;;-0.29;100.00;97142.72;5057914;28;20197;-84
2023/03/04 04:20:08;;;;;;;38.47;24.33;;;;;;;-0.38;100.00;97146.19;5057110;28;20652;-83
2023/03/04 04:22:33;;;;;;;42.83;25.33;;;;;;;-0.44;100.00;97149.34;5056493;28;20535;-84
2023/03/04 04:24:59;;;;;;;36.63;24.57;;;;;;;-0.48;100.00;97155.75;5057093;28;20194;-84
2023/03/04 04:27:24;;;;;;;40.23;25.13;;;;;;;-0.35;100.00;97156.19;5055500;28;20226;-83
2023/03/04 04:29:49;;;;;;;43.33;25.10;;;;;;;-0.44;100.00;97152.72;5058724;28;20182;-84
2023/03/04 04:32:15;;;;;;;41.87;25.00;;;;;;;-0.43;100.00;97153.53;5059772;28;20357;-83
2023/03/04 04:34:40;;;;;;;43.00;24.13;;;;;;;-0.46;100.00;97146.13;5061405;28;20226;-84
2023/03/04 04:37:06;;;;;;;39.93;23.07;;;;;;;-0.47;100.00;97144.50;5065243;28;20194;-83
2023/03/04 04:39:31;;;;;;;36.43;24.13;;;;;;;-0.50;100.00;97148.19;5062318;28;20643;-84
2023/03/04 04:41:56;;;;;;;37.50;23.57;;;;;;;-0.46;100.00;97151.28;5062871;28;20241;-84
2023/03/04 04:44:22;;;;;;;39.23;23.97;;;;;;;-0.45;100.00;97153.69;5057367;28;20227;-83
2023/03/04 04:46:47;;;;;;;39.53;24.43;;;;;;;-0.40;100.00;97149.88;5057144;28;20303;-84
2023/03/04 04:49:12;;;;;;;36.30;23.10;;;;;;;-0.42;100.00;97152.59;5056193;28;20221;-83
2023/03/04 04:51:38;;;;;;;39.77;24.50;;;;;;;-0.59;100.00;97154.22;5054378;28;20201;-83
2023/03/04 04:54:05;;;;;;;36.47;24.07;;;;;;;-0.64;100.00;97150.47;5056643;28;20182;-84
2023/03/04 04:56:31;;;;;;;39.37;24.67;;;;;;;-0.45;100.00;97158.06;5055898;28;20273;-83
2023/03/04 04:58:59;;;;;;;45.50;25.93;;;;;;;-0.54;100.00;97157.16;5057013;28;20178;-83
2023/03/04 05:01:25;;;;;;;38.93;24.87;;;;;;;-0.71;100.00;97155.41;5055901;28;20213;-83
2023/03/04 05:03:52;;;;;;;39.30;24.57;;;;;;;-0.74;100.00;97155.72;5056480;28;20197;-84
2023/03/04 05:06:18;;;;;;;41.30;25.17;;;;;;;-0.81;100.00;97148.72;5054553;28;20255;-83
2023/03/04 05:08:44;;;;;;;41.53;26.10;;;;;;;-0.80;100.00;97158.88;5055169;28;20222;-84
2023/03/04 05:11:09;;;;;;;39.93;24.57;;;;;;;-0.76;100.00;97154.22;5055723;28;20193;-83
2023/03/04 05:13:34;;;;;;;39.17;25.27;;;;;;;-0.75;100.00;97163.56;5063528;28;20533;-83
2023/03/04 05:16:00;;;;;;;40.70;25.60;;;;;;;-0.77;100.00;97157.75;5062575;28;20220;-83
2023/03/04 05:18:26;;;;;;;43.37;26.37;;;;;;;-0.70;100.00;97149.31;5057608;28;20213;-83
2023/03/04 05:20:57;;;;;;;38.93;24.93;;;;;;;-0.63;100.00;97163.22;5056887;28;20194;-84
2023/03/04 05:23:23;;;;;;;42.60;25.33;;;;;;;-0.59;100.00;97166.28;5055324;28;20531;-83
2023/03/04 05:25:49;;;;;;;41.63;27.10;;;;;;;-0.68;100.00;97164.59;5057751;28;20198;-84
2023/03/04 05:28:15;;;;;;;43.00;25.00;;;;;;;-0.82;100.00;97165.09;5047662;28;20214;-83
2023/03/04 05:30:43;;;;;;;40.90;26.20;;;;;;;-0.84;100.00;97160.91;5059102;28;20225;-83
2023/03/04 05:33:09;;;;;;;46.13;27.37;;;;;;;-0.85;100.00;97164.44;5058106;28;20201;-83
2023/03/04 05:35:36;;;;;;;46.50;26.53;;;;;;;-1.00;100.00;97162.50;5061835;28;20229;-84
2023/03/04 05:38:03;;;;;;;46.27;27.30;;;;;;;-1.12;100.00;97171.41;5059193;28;20220;-84
2023/03/04 05:40:29;;;;;;;49.20;27.97;;;;;;;-1.16;100.00;97170.03;5061973;28;20193;-83
2023/03/04 05:42:55;;;;;;;46.70;28.03;;;;;;;-1.25;100.00;97171.72;5063427;28;20518;-83
2023/03/04 05:45:21;;;;;;;44.13;26.50;;;;;;;-1.28;100.00;97169.44;5059182;28;20252;-84
2023/03/04 05:47:46;;;;;;;52.97;28.37;;;;;;;-1.24;100.00;97167.41;5057324;28;20214;-84
2023/03/04 05:50:11;;;;;;;50.23;29.27;;;;;;;-1.40;100.00;97173.16;5057554;28;20248;-84
2023/03/04 05:52:37;;;;;;;48.33;27.30;;;;;;;-1.47;100.00;97166.97;5058206;28;20232;-84
2023/03/04 05:55:02;;;;;;;48.00;27.20;;;;;;;-1.53;100.00;97177.81;5056347;28;20642;-83
2023/03/04 05:57:28;;;;;;;49.83;29.23;;;;;;;-1.53;100.00;97175.25;5055807;28;20198;-83
2023/03/04 05:59:53;;;;;;;46.13;27.27;;;;;;;-1.62;100.00;97176.09;5055835;28;20200;-84
2023/03/04 06:02:18;;;;;;;52.33;28.13;;;;;;;-1.63;100.00;97172.72;5055737;28;20218;-84
2023/03/04 06:04:44;;;;;;;52.87;27.83;;;;;;;-1.60;100.00;97176.75;5054711;28;20186;-84
2023/03/04 06:07:09;;;;;;;53.40;29.17;;;;;;;-1.53;100.00;97176.06;5056408;28;20217;-83
2023/03/04 06:09:34;;;;;;;51.50;27.63;;;;;;;-1.49;100.00;97186.84;5055911;28;20232;-83
2023/03/04 06:11:59;;;;;;;47.60;27.10;;;;;;;-1.46;100.00;97186.59;5056031;28;20194;-83
2023/03/04 06:14:25;;;;;;;52.57;26.47;;;;;;;-1.45;100.00;97185.63;5055499;28;20190;-84
2023/03/04 06:16:50;;;;;;;45.83;24.70;;;;;;;-1.41;100.00;97185.22;5055456;28;20186;-82
2023/03/04 06:19:16;;;;;;;53.50;27.07;;;;;;;-1.37;100.00;97183.16;5056069;28;20255;-83
2023/03/04 06:21:41;;;;;;;47.13;25.30;;;;;;;-1.38;100.00;97194.38;5055045;28;20200;-83
2023/03/04 06:24:06;;;;;;;43.20;23.80;;;;;;;-1.31;100.00;97191.09;5054751;28;20209;-83
2023/03/04 06:26:32;;;;;;;43.53;24.03;;;;;;;-1.22;100.00;97191.19;5053488;28;20210;-83
2023/03/04 06:28:57;;;;;;;49.57;25.43;;;;;;;-1.11;100.00;97191.00;5055086;28;20670;-83
2023/03/04 06:31:22;;;;;;;41.93;23.17;;;;;;;-1.22;100.00;97196.31;5055390;28;20190;-84
2023/03/04 06:33:48;;;;;;;42.27;24.63;;;;;;;-1.02;100.00;97208.16;5056414;28;20192;-82
2023/03/04 06:36:13;;;;;;;45.03;24.13;;;;;;;-1.14;100.00;97204.16;5054993;28;20639;-82
2023/03/04 06:38:38;;;;;;;42.27;23.97;;;;;;;-1.23;100.00;97208.41;5052932;28;20303;-83
2023/03/04 06:41:09;;;;;;;41.90;22.93;;;;;;;-1.13;100.00;97222.03;5056078;28;20701;-84
2023/03/04 06:43:34;;;;;;;47.83;24.40;;;;;;;-1.17;100.00;97218.09;5055852;28;20548;-83
2023/03/04 06:46:00;;;;;;;38.87;22.40;;;;;;;-1.08;100.00;97211.28;5055433;28;20324;-83
2023/03/04 06:48:26;;;;;;;37.33;23.53;;;;;;;-0.99;100.00;97220.72;5056428;28;20194;-85
2023/03/04 06:50:51;;;;;;;44.63;23.47;;;;;;;-0.78;100.00;97223.06;5058771;28;20185;-84
2023/03/04 06:53:16;;;;;;;36.13;22.07;;;;;;;-0.75;100.00;97220.16;5038148;28;20278;-84
2023/03/04 06:55:41;;;;;;;41.63;22.97;;;;;;;-0.65;100.00;97226.06;5057245;28;20244;-84
2023/03/04 06:58:07;;;;;;;38.97;22.80;;;;;;;-0.79;100.00;97226.56;5058474;28;20198;-83
2023/03/04 07:00:32;;;;;;;36.90;21.37;;;;;;;-0.90;100.00;97233.53;5058600;28;20197;-83
2023/03/04 07:02:58;;;;;;;40.83;21.93;;;;;;;-0.78;100.00;97231.56;5054636;28;20198;-83
2023/03/04 07:05:24;;;;;;;40.00;22.67;;;;;;;-0.84;100.00;97227.78;5054340;28;20225;-83
2023/03/04 07:07:49;;;;;;;37.57;21.60;;;;;;;-0.75;100.00;97233.03;5054296;28;20220;-80
2023/03/04 07:10:16;;;;;;;42.20;23.47;;;;;;;-0.84;100.00;97239.88;5054351;28;20613;-79
2023/03/04 07:12:41;;;;;;;39.47;23.37;;;;;;;-0.81;100.00;97236.19;5054250;28;20557;-80
2023/03/04 07:15:07;;;;;;;36.33;22.67;;;;;;;-0.70;100.00;97231.66;5053598;28;20263;-80
2023/03/04 07:17:33;;;;;;;37.00;22.77;;;;;;;-0.80;100.00;97237.81;5054174;28;20655;-80
2023/03/04 07:19:59;;;;;;;38.03;23.27;;;;;;;-0.82;100.00;97244.84;5053689;28;20601;-81
2023/03/04 07:22:24;;;;;;;42.83;24.10;;;;;;;-0.85;100.00;97254.50;5053990;28;20202;-81
2023/03/04 07:24:49;;;;;;;39.40;26.93;;;;;;;-0.88;100.00;97251.38;5053225;28;20210;-81
2023/03/04 07:27:15;;;;;;;41.70;22.83;;;;;;;-0.84;100.00;97245.81;5051311;28;20245;-81
2023/03/04 07:29:40;;;;;;;36.70;22.67;;;;;;;-0.79;100.00;97254.88;5052545;28;20186;-79
2023/03/04 07:32:07;;;;;;;40.30;22.10;;;;;;;-0.80;100.00;97256.63;5056372;28;20192;-82
2023/03/04 07:34:32;;;;;;;42.83;22.90;;;;;;;-0.68;100.00;97263.22;5055158;28;20271;-80
2023/03/04 07:36:58;;;;;;;37.80;23.87;;;;;;;-0.60;100.00;97260.69;5052801;28;20276;-81
2023/03/04 07:39:23;;;;;;;38.87;22.70;;;;;;;-0.65;100.00;97260.34;5053312;28;20233;-80
2023/03/04 07:41:48;;;;;;;40.43;23.07;;;;;;;-1.06;100.00;97251.34;5035853;28;20230;-81
2023/03/04 07:44:14;;;;;;;40.70;22.53;;;;;;;-1.10;100.00;97257.72;5053181;28;20634;-81
2023/03/04 07:46:39;;;;;;;42.57;23.50;;;;;;;-0.98;100.00;97266.06;5053584;28;20206;-81
2023/03/04 07:49:05;;;;;;;37.03;22.77;;;;;;;-0.91;100.00;97270.50;5053874;28;20244;-81
2023/03/04 07:51:30;;;;;;;39.03;22.67;;;;;;;-0.92;100.00;97263.75;5053497;28;20281;-81
2023/03/04 07:53:58;;;;;;;40.63;23.87;;;;;;;-1.04;100.00;97267.44;5053067;28;20296;-81
2023/03/04 07:56:27;;;;;;;42.33;23.10;;;;;;;-0.87;100.00;97273.59;5052901;28;20197;-81
2023/03/04 07:58:53;;;;;;;37.73;23.00;;;;;;;-1.09;100.00;97269.63;5052066;28;20251;-81
2023/03/04 08:01:21;;;;;;;43.27;23.27;;;;;;;-0.93;100.00;97271.59;5053865;28;20655;-80
2023/03/04 08:03:46;;;;;;;37.17;22.13;;;;;;;-0.67;100.00;97276.88;5052663;28;20190;-79
2023/03/04 08:06:15;;;;;;;38.47;23.40;;;;;;;-0.55;100.00;97273.13;5052500;28;20217;-80
2023/03/04 08:08:41;;;;;;;38.43;23.13;;;;;;;-0.44;100.00;97278.88;5053300;28;20205;-81
2023/03/04 08:11:10;;;;;;;43.40;23.80;;;;;;;-0.53;100.00;97284.91;5052591;28;20193;-81
2023/03/04 08:13:35;;;;;;;39.30;22.67;;;;;;;-0.64;100.00;97281.72;5053222;28;20201;-81
2023/03/04 08:16:01;;;;;;;36.77;21.93;;;;;;;-0.91;100.00;97282.56;5052226;28;20191;-81
2023/03/04 08:18:27;;;;;;;37.57;21.83;;;;;;;-0.86;100.00;97282.94;5051721;28;20189;-82
2023/03/04 08:20:52;;;;;;;37.50;21.43;;;;;;;-0.67;100.00;97284.59;5052218;28;20555;-81
2023/03/04 08:23:18;;;;;;;34.40;21.17;;;;;;;-0.32;100.00;97288.97;5050985;28;20528;-80
2023/03/04 08:25:44;;;;;;;37.17;21.77;;;;;;;-0.28;100.00;97296.25;5050305;28;20230;-80
2023/03/04 08:28:12;;;;;;;34.13;20.93;;;;;;;-0.36;100.00;97291.03;5052859;28;20245;-82
2023/03/04 08:30:38;;;;;;;37.13;21.50;;;;;;;-0.34;100.00;97294.28;5052754;28;20182;-80
2023/03/04 08:33:03;;;;;;;36.93;21.53;;;;;;;-0.16;100.00;97302.00;5051495;28;20194;-79
2023/03/04 08:35:29;;;;;;;33.37;21.97;;;;;;;-0.42;100.00;97302.72;5052444;28;20282;-79
2023/03/04 08:37:54;;;;;;;39.47;22.60;;;;;;;-0.41;100.00;97300.97;5051705;28;20242;-80
2023/03/04 08:40:21;;;;;;;31.60;20.33;;;;;;;-0.34;100.00;97304.59;5052031;28;20722;-80
2023/03/04 08:42:46;;;;;;;53.70;48.23;;;;;;;-0.43;100.00;97313.97;5052555;28;20277;-78
2023/03/04 08:45:12;;;;;;;34.77;21.70;;;;;;;-0.60;100.00;97301.06;5052287;28;20227;-80
2023/03/04 08:47:37;;;;;;;34.60;19.93;;;;;;;-0.27;100.00;97307.38;5052243;28;20705;-81
2023/03/04 08:50:05;;;;;;;34.57;20.30;;;;;;;-0.43;100.00;97302.88;5051732;28;20217;-80
2023/03/04 08:52:30;;;;;;;35.47;20.50;;;;;;;-0.23;100.00;97311.28;5052085;28;20647;-80
2023/03/04 08:54:56;;;;;;;33.27;20.20;;;;;;;-0.58;100.00;97305.13;5052231;28;20218;-80
2023/03/04 08:57:22;;;;;;;31.27;20.10;;;;;;;-0.55;100.00;97307.41;5052117;28;20201;-80
2023/03/04 08:59:47;;;;;;;35.10;20.73;;;;;;;-0.23;100.00;97303.56;5050872;28;20665;-80
2023/03/04 09:02:12;;;;;;;37.87;21.10;;;;;;;-0.19;100.00;97307.47;5051787;28;20292;-80
2023/03/04 09:04:38;;;;;;;31.13;20.13;;;;;;;-0.08;100.00;97305.47;5052434;28;20190;-79
2023/03/04 09:07:03;;;;;;;35.20;21.93;;;;;;;-0.13;100.00;97312.03;5053089;28;20225;-78
2023/03/04 09:09:28;;;;;;;35.00;20.93;;;;;;;-0.26;100.00;97314.97;5052578;28;20198;-77
2023/03/04 09:11:54;;;;;;;32.00;21.83;;;;;;;0.06;100.00;97313.66;5052336;28;20209;-81
2023/03/04 09:14:19;;;;;;;40.20;22.03;;;;;;;0.03;100.00;97316.50;5046459;28;20217;-80
2023/03/04 09:16:45;;;;;;;40.07;21.83;;;;;;;-0.07;100.00;97319.16;5050583;28;20224;-81
2023/03/04 09:19:10;;;;;;;34.17;21.90;;;;;;;-0.02;100.00;97316.97;5051637;28;20226;-80
2023/03/04 09:21:35;;;;;;;38.90;22.43;;;;;;;-0.13;100.00;97320.56;5051852;28;20197;-80
2023/03/04 09:24:01;;;;;;;35.07;20.83;;;;;;;0.00;100.00;97320.22;5051468;28;20201;-80
2023/03/04 09:26:28;;;;;;;38.20;21.63;;;;;;;0.10;100.00;97323.53;5046526;28;20712;-80
2023/03/04 09:28:56;;;;;;;35.47;20.77;;;;;;;0.17;100.00;97321.94;5052296;28;20190;-80
2023/03/04 09:31:23;;;;;;;32.33;19.30;;;;;;;0.41;100.00;97321.34;5051887;28;20213;-80
2023/03/04 09:33:51;;;;;;;33.60;21.33;;;;;;;0.66;100.00;97312.00;5051707;28;20190;-80
2023/03/04 09:36:17;;;;;;;32.40;19.67;;;;;;;0.77;100.00;97312.56;5051435;28;20217;-80
2023/03/04 09:38:43;;;;;;;33.07;21.10;;;;;;;0.61;100.00;97314.25;5051087;28;20208;-80
2023/03/04 09:41:19;;;;;;;38.70;20.43;;;;;;;0.82;100.00;97320.66;5051510;28;20194;-80
2023/03/04 09:43:46;;;;;;;30.27;20.53;;;;;;;0.64;100.00;97319.09;5051612;28;20185;-80
2023/03/04 09:46:28;;;;;;;34.23;19.77;;;;;;;0.54;100.00;97316.59;5050519;28;20198;-80
2023/03/04 09:48:55;;;;;;;25.33;18.00;;;;;;;0.48;100.00;97311.25;5051716;28;20204;-81
2023/03/04 09:51:34;;;;;;;30.67;19.57;;;;;;;0.57;100.00;97312.91;5051610;28;20647;-80
2023/03/04 09:54:07;;;;;;;31.47;19.03;;;;;;;0.72;100.00;97301.91;5051844;28;20277;-81
2023/03/04 09:56:36;;;;;;;28.17;17.77;;;;;;;0.90;100.00;97312.13;5051885;28;20188;-80
2023/03/04 09:59:01;;;;;;;28.70;18.50;;;;;;;0.86;100.00;97307.44;5052681;28;20732;-80
2023/03/04 10:01:38;;;;;;;30.40;19.33;;;;;;;0.94;100.00;97316.06;5053874;28;20186;-80
2023/03/04 10:04:21;;;;;;;34.90;19.07;;;;;;;0.60;100.00;97323.75;5054715;28;20186;-80
2023/03/04 10:06:53;;;;;;;32.03;19.10;;;;;;;0.79;100.00;97320.13;5054814;28;20289;-80
2023/03/04 10:09:29;;;;;;;32.00;19.20;;;;;;;0.75;100.00;97324.00;5055154;28;20183;-80
2023/03/04 10:12:12;;;;;;;29.57;19.13;;;;;;;1.04;100.00;97316.75;5055126;28;20201;-79
2023/03/04 10:14:44;;;;;;;29.63;20.10;;;;;;;1.46;100.00;97323.69;5054108;28;20186;-80
2023/03/04 10:17:15;;;;;;;29.00;20.60;;;;;;;1.39;100.00;97320.94;5054964;28;20186;-79
2023/03/04 10:20:11;;;;;;;31.70;20.37;;;;;;;1.17;100.00;97319.69;5055067;28;20202;-79
2023/03/04 10:22:45;;;;;;;27.93;19.67;;;;;;;1.33;100.00;97315.59;5046219;28;20197;-79
2023/03/04 10:25:30;;;;;;;29.90;20.43;;;;;;;1.38;100.00;97315.94;5052613;28;20204;-80
2023/03/04 10:27:57;;;;;;;29.67;19.50;;;;;;;1.28;98.27;97307.50;5054633;28;20206;-79
2023/03/04 10:30:49;;;;;;;29.77;19.50;;;;;;;1.40;97.54;97309.63;5054582;28;20186;-79
2023/03/04 10:33:21;;;;;;;30.70;21.43;;;;;;;1.22;98.44;97311.50;5054863;28;20186;-79
2023/03/04 10:36:01;;;;;;;33.17;23.40;;;;;;;1.51;97.03;97305.94;5054062;28;20226;-80
2023/03/04 10:38:30;;;;;;;30.87;22.13;;;;;;;1.15;99.38;97305.34;5054191;28;20201;-79
2023/03/04 10:40:57;;;;;;;33.87;24.13;;;;;;;1.69;96.67;97309.22;5054395;28;20607;-79
2023/03/04 10:43:22;;;;;;;33.00;23.43;;;;;;;2.12;94.13;97304.78;5054650;28;20194;-80
2023/03/04 10:45:48;;;;;;;31.87;21.27;;;;;;;2.13;93.68;97311.56;5054482;28;20182;-79
2023/03/04 10:48:30;;;;;;;31.93;21.70;;;;;;;1.71;93.46;97304.72;5053053;28;20213;-79
2023/03/04 10:51:21;;;;;;;33.40;21.63;;;;;;;1.80;94.40;97296.00;5053944;28;20269;-79
2023/03/04 10:53:56;;;;;;;34.07;21.60;;;;;;;1.91;92.62;97297.47;5054405;28;20237;-80
2023/03/04 10:56:36;;;;;;;33.20;21.67;;;;;;;1.89;93.57;97300.25;5054686;28;20173;-80
2023/03/04 10:59:33;;;;;;;33.00;20.80;;;;;;;2.23;93.36;97294.13;5064375;28;20193;-80
2023/03/04 11:01:59;;;;;;;34.87;23.93;;;;;;;2.38;91.74;97284.75;5053969;28;20182;-79
2023/03/04 11:04:31;;;;;;;34.60;22.73;;;;;;;2.45;90.74;97288.31;5054610;28;20673;-79
2023/03/04 11:06:56;;;;;;;33.63;21.37;;;;;;;2.55;89.81;97290.72;5054618;28;20764;-80
2023/03/04 11:09:30;;;;;;;37.70;22.53;;;;;;;2.51;90.45;97282.44;5053404;28;20296;-80
2023/03/04 11:12:00;;;;;;;38.93;23.93;;;;;;;2.22;89.76;97290.72;5054152;28;20198;-80
2023/03/04 11:14:47;;;;;;;35.40;22.57;;;;;;;2.33;90.60;97277.47;5036855;28;20293;-79